sensor_id;sensor_type;location;lat;lon;timestamp;P1;durP1;ratioP1;P2;durP2;ratioP2
25327;SDS011;13279;51.300;12.394;2022-08-19T00:00:07;44.63;;;28.10;;
25327;SDS011;13279;51.300;12.394;2022-08-19T00:02:36;52.03;;;30.57;;
25327;SDS011;13279;51.300;12.394;2022-08-19T00:05:05;46.50;;;28.00;;
25327;SDS011;13279;51.300;12.394;2022-08-19T00:07:34;43.50;;;28.90;;
25327;SDS011;13279;51.300;12.394;2022-08-19T00:10:03;46.70;;;30.90;;
25327;SDS011;13279;51.300;12.394;2022-08-19T00:12:31;53.23;;;31.03;;
25327;SDS011;13279;51.300;12.394;2022-08-19T00:14:59;53.30;;;31.67;;
25327;SDS011;13279;51.300;12.394;2022-08-19T00:17:27;51.90;;;31.47;;
25327;SDS011;13279;51.300;12.394;2022-08-19T00:19:54;55.90;;;31.23;;
25327;SDS011;13279;51.300;12.394;2022-08-19T00:22:23;46.07;;;30.37;;
25327;SDS011;13279;51.300;12.394;2022-08-19T00:24:52;53.03;;;30.13;;
25327;SDS011;13279;51.300;12.394;2022-08-19T00:27:19;50.70;;;31.03;;
25327;SDS011;13279;51.300;12.394;2022-08-19T00:29:47;55.17;;;31.13;;
25327;SDS011;13279;51.300;12.394;2022-08-19T00:32:14;53.17;;;32.20;;
25327;SDS011;13279;51.300;12.394;2022-08-19T00:34:42;53.07;;;31.70;;
25327;SDS011;13279;51.300;12.394;2022-08-19T00:37:09;50.37;;;30.57;;
25327;SDS011;13279;51.300;12.394;2022-08-19T00:39:38;55.17;;;32.20;;
25327;SDS011;13279;51.300;12.394;2022-08-19T00:42:06;51.17;;;30.67;;
25327;SDS011;13279;51.300;12.394;2022-08-19T00:44:33;49.93;;;31.17;;
25327;SDS011;13279;51.300;12.394;2022-08-19T00:47:01;54.43;;;30.50;;
25327;SDS011;13279;51.300;12.394;2022-08-19T00:49:29;54.93;;;31.37;;
25327;SDS011;13279;51.300;12.394;2022-08-19T00:52:02;51.70;;;31.57;;
25327;SDS011;13279;51.300;12.394;2022-08-19T00:54:34;55.47;;;31.63;;
25327;SDS011;13279;51.300;12.394;2022-08-19T00:57:05;53.00;;;33.43;;
25327;SDS011;13279;51.300;12.394;2022-08-19T00:59:36;58.13;;;33.97;;
25327;SDS011;13279;51.300;12.394;2022-08-19T01:02:06;59.23;;;35.37;;
25327;SDS011;13279;51.300;12.394;2022-08-19T01:04:34;59.23;;;34.60;;
25327;SDS011;13279;51.300;12.394;2022-08-19T01:07:02;54.87;;;32.83;;
25327;SDS011;13279;51.300;12.394;2022-08-19T01:09:29;53.83;;;32.53;;
25327;SDS011;13279;51.300;12.394;2022-08-19T01:11:58;60.40;;;33.63;;
25327;SDS011;13279;51.300;12.394;2022-08-19T01:14:26;57.83;;;35.30;;
25327;SDS011;13279;51.300;12.394;2022-08-19T01:16:54;59.00;;;34.80;;
25327;SDS011;13279;51.300;12.394;2022-08-19T01:19:25;56.83;;;33.07;;
25327;SDS011;13279;51.300;12.394;2022-08-19T01:21:57;54.60;;;34.47;;
25327;SDS011;13279;51.300;12.394;2022-08-19T01:24:30;56.07;;;34.17;;
25327;SDS011;13279;51.300;12.394;2022-08-19T01:26:58;64.10;;;37.47;;
25327;SDS011;13279;51.300;12.394;2022-08-19T01:29:25;60.77;;;34.57;;
25327;SDS011;13279;51.300;12.394;2022-08-19T01:31:54;58.73;;;35.57;;
25327;SDS011;13279;51.300;12.394;2022-08-19T01:34:21;63.30;;;36.13;;
25327;SDS011;13279;51.300;12.394;2022-08-19T01:36:50;65.87;;;37.20;;
25327;SDS011;13279;51.300;12.394;2022-08-19T01:39:18;60.47;;;36.53;;
25327;SDS011;13279;51.300;12.394;2022-08-19T01:41:48;60.73;;;35.27;;
25327;SDS011;13279;51.300;12.394;2022-08-19T01:44:16;61.37;;;35.43;;
25327;SDS011;13279;51.300;12.394;2022-08-19T01:46:46;64.37;;;36.03;;
25327;SDS011;13279;51.300;12.394;2022-08-19T01:49:16;63.27;;;36.43;;
25327;SDS011;13279;51.300;12.394;2022-08-19T01:51:46;61.43;;;35.90;;
25327;SDS011;13279;51.300;12.394;2022-08-19T01:54:15;57.60;;;35.00;;
25327;SDS011;13279;51.300;12.394;2022-08-19T01:56:43;61.90;;;36.17;;
25327;SDS011;13279;51.300;12.394;2022-08-19T01:59:13;57.80;;;34.80;;
25327;SDS011;13279;51.300;12.394;2022-08-19T02:01:44;61.57;;;36.23;;
25327;SDS011;13279;51.300;12.394;2022-08-19T02:04:11;63.30;;;35.43;;
25327;SDS011;13279;51.300;12.394;2022-08-19T02:06:39;61.93;;;34.90;;
25327;SDS011;13279;51.300;12.394;2022-08-19T02:09:07;57.27;;;35.23;;
25327;SDS011;13279;51.300;12.394;2022-08-19T02:11:35;60.37;;;35.53;;
25327;SDS011;13279;51.300;12.394;2022-08-19T02:14:05;66.67;;;36.73;;
25327;SDS011;13279;51.300;12.394;2022-08-19T02:16:35;56.73;;;34.87;;
25327;SDS011;13279;51.300;12.394;2022-08-19T02:19:03;54.93;;;34.50;;
25327;SDS011;13279;51.300;12.394;2022-08-19T02:21:31;60.03;;;35.10;;
25327;SDS011;13279;51.300;12.394;2022-08-19T02:24:00;60.40;;;36.63;;
25327;SDS011;13279;51.300;12.394;2022-08-19T02:26:27;63.10;;;36.67;;
25327;SDS011;13279;51.300;12.394;2022-08-19T02:28:55;59.73;;;36.83;;
25327;SDS011;13279;51.300;12.394;2022-08-19T02:31:23;61.83;;;36.47;;
25327;SDS011;13279;51.300;12.394;2022-08-19T02:33:55;60.33;;;35.97;;
25327;SDS011;13279;51.300;12.394;2022-08-19T02:36:23;55.93;;;35.17;;
25327;SDS011;13279;51.300;12.394;2022-08-19T02:38:52;55.67;;;34.13;;
25327;SDS011;13279;51.300;12.394;2022-08-19T02:41:20;61.30;;;35.90;;
25327;SDS011;13279;51.300;12.394;2022-08-19T02:43:49;59.10;;;35.73;;
25327;SDS011;13279;51.300;12.394;2022-08-19T02:46:17;59.03;;;35.50;;
25327;SDS011;13279;51.300;12.394;2022-08-19T02:48:48;55.33;;;35.10;;
25327;SDS011;13279;51.300;12.394;2022-08-19T02:51:18;57.07;;;36.20;;
25327;SDS011;13279;51.300;12.394;2022-08-19T02:53:47;60.43;;;36.50;;
25327;SDS011;13279;51.300;12.394;2022-08-19T02:56:14;50.00;;;32.53;;
25327;SDS011;13279;51.300;12.394;2022-08-19T02:58:42;54.10;;;33.43;;
25327;SDS011;13279;51.300;12.394;2022-08-19T03:01:10;47.27;;;30.43;;
25327;SDS011;13279;51.300;12.394;2022-08-19T03:03:38;46.73;;;30.57;;
25327;SDS011;13279;51.300;12.394;2022-08-19T03:06:06;52.50;;;33.20;;
25327;SDS011;13279;51.300;12.394;2022-08-19T03:08:38;46.27;;;30.67;;
25327;SDS011;13279;51.300;12.394;2022-08-19T03:11:11;44.63;;;31.90;;
25327;SDS011;13279;51.300;12.394;2022-08-19T03:13:40;44.63;;;29.27;;
25327;SDS011;13279;51.300;12.394;2022-08-19T03:16:09;44.30;;;30.73;;
25327;SDS011;13279;51.300;12.394;2022-08-19T03:18:37;45.90;;;28.87;;
25327;SDS011;13279;51.300;12.394;2022-08-19T03:21:05;43.03;;;28.73;;
25327;SDS011;13279;51.300;12.394;2022-08-19T03:23:32;43.10;;;28.90;;
25327;SDS011;13279;51.300;12.394;2022-08-19T03:26:03;40.80;;;28.20;;
25327;SDS011;13279;51.300;12.394;2022-08-19T03:28:32;42.13;;;28.07;;
25327;SDS011;13279;51.300;12.394;2022-08-19T03:31:02;42.60;;;28.30;;
25327;SDS011;13279;51.300;12.394;2022-08-19T03:33:32;38.80;;;27.63;;
25327;SDS011;13279;51.300;12.394;2022-08-19T03:36:04;40.67;;;28.43;;
25327;SDS011;13279;51.300;12.394;2022-08-19T03:38:34;39.53;;;26.97;;
25327;SDS011;13279;51.300;12.394;2022-08-19T03:41:04;40.90;;;27.43;;
25327;SDS011;13279;51.300;12.394;2022-08-19T03:43:34;44.67;;;27.03;;
25327;SDS011;13279;51.300;12.394;2022-08-19T03:46:03;34.87;;;24.50;;
25327;SDS011;13279;51.300;12.394;2022-08-19T03:48:32;35.67;;;25.40;;
25327;SDS011;13279;51.300;12.394;2022-08-19T03:51:00;42.33;;;26.23;;
25327;SDS011;13279;51.300;12.394;2022-08-19T03:53:28;34.63;;;25.37;;
25327;SDS011;13279;51.300;12.394;2022-08-19T03:55:57;35.27;;;26.83;;
25327;SDS011;13279;51.300;12.394;2022-08-19T03:58:27;38.93;;;27.17;;
25327;SDS011;13279;51.300;12.394;2022-08-19T04:00:56;39.80;;;26.03;;
25327;SDS011;13279;51.300;12.394;2022-08-19T04:03:23;34.10;;;26.13;;
25327;SDS011;13279;51.300;12.394;2022-08-19T04:05:52;38.80;;;25.97;;
25327;SDS011;13279;51.300;12.394;2022-08-19T04:08:20;35.50;;;24.70;;
25327;SDS011;13279;51.300;12.394;2022-08-19T04:10:48;33.47;;;23.27;;
25327;SDS011;13279;51.300;12.394;2022-08-19T04:13:16;34.13;;;23.70;;
25327;SDS011;13279;51.300;12.394;2022-08-19T04:15:46;36.20;;;23.97;;
25327;SDS011;13279;51.300;12.394;2022-08-19T04:18:13;34.43;;;24.80;;
25327;SDS011;13279;51.300;12.394;2022-08-19T04:20:41;35.33;;;23.90;;
25327;SDS011;13279;51.300;12.394;2022-08-19T04:23:12;41.73;;;26.00;;
25327;SDS011;13279;51.300;12.394;2022-08-19T04:25:42;35.07;;;24.13;;
25327;SDS011;13279;51.300;12.394;2022-08-19T04:28:11;39.57;;;25.47;;
25327;SDS011;13279;51.300;12.394;2022-08-19T04:30:40;38.03;;;23.50;;
25327;SDS011;13279;51.300;12.394;2022-08-19T04:33:10;34.83;;;23.27;;
25327;SDS011;13279;51.300;12.394;2022-08-19T04:35:39;35.23;;;23.13;;
25327;SDS011;13279;51.300;12.394;2022-08-19T04:38:08;35.73;;;25.00;;
25327;SDS011;13279;51.300;12.394;2022-08-19T04:40:39;37.13;;;26.00;;
25327;SDS011;13279;51.300;12.394;2022-08-19T04:43:25;37.53;;;26.07;;
25327;SDS011;13279;51.300;12.394;2022-08-19T04:45:53;48.73;;;28.43;;
25327;SDS011;13279;51.300;12.394;2022-08-19T04:48:22;46.80;;;30.93;;
25327;SDS011;13279;51.300;12.394;2022-08-19T04:50:52;46.90;;;31.67;;
25327;SDS011;13279;51.300;12.394;2022-08-19T04:53:23;48.93;;;33.33;;
25327;SDS011;13279;51.300;12.394;2022-08-19T04:55:54;50.73;;;34.23;;
25327;SDS011;13279;51.300;12.394;2022-08-19T04:58:22;47.67;;;34.27;;
25327;SDS011;13279;51.300;12.394;2022-08-19T05:00:51;50.50;;;33.83;;
25327;SDS011;13279;51.300;12.394;2022-08-19T05:03:19;50.33;;;33.37;;
25327;SDS011;13279;51.300;12.394;2022-08-19T05:05:48;51.70;;;34.13;;
25327;SDS011;13279;51.300;12.394;2022-08-19T05:08:16;53.70;;;36.47;;
25327;SDS011;13279;51.300;12.394;2022-08-19T05:10:46;53.33;;;34.30;;
25327;SDS011;13279;51.300;12.394;2022-08-19T05:13:16;55.93;;;34.57;;
25327;SDS011;13279;51.300;12.394;2022-08-19T05:15:52;47.47;;;33.23;;
25327;SDS011;13279;51.300;12.394;2022-08-19T05:18:21;48.67;;;33.90;;
25327;SDS011;13279;51.300;12.394;2022-08-19T05:21:08;47.57;;;32.17;;
25327;SDS011;13279;51.300;12.394;2022-08-19T05:23:54;45.70;;;32.17;;
25327;SDS011;13279;51.300;12.394;2022-08-19T05:26:22;47.63;;;33.40;;
25327;SDS011;13279;51.300;12.394;2022-08-19T05:28:51;50.43;;;32.30;;
25327;SDS011;13279;51.300;12.394;2022-08-19T05:31:19;45.43;;;31.73;;
25327;SDS011;13279;51.300;12.394;2022-08-19T05:33:47;57.00;;;34.53;;
25327;SDS011;13279;51.300;12.394;2022-08-19T05:36:17;53.27;;;33.07;;
25327;SDS011;13279;51.300;12.394;2022-08-19T05:38:45;53.83;;;33.77;;
25327;SDS011;13279;51.300;12.394;2022-08-19T05:41:16;53.57;;;34.80;;
25327;SDS011;13279;51.300;12.394;2022-08-19T05:43:44;57.47;;;34.90;;
25327;SDS011;13279;51.300;12.394;2022-08-19T05:46:15;57.00;;;35.53;;
25327;SDS011;13279;51.300;12.394;2022-08-19T05:48:44;53.03;;;36.23;;
25327;SDS011;13279;51.300;12.394;2022-08-19T05:51:13;59.20;;;36.97;;
25327;SDS011;13279;51.300;12.394;2022-08-19T05:53:43;69.37;;;40.37;;
25327;SDS011;13279;51.300;12.394;2022-08-19T05:56:12;68.43;;;39.87;;
25327;SDS011;13279;51.300;12.394;2022-08-19T05:58:41;59.33;;;36.50;;
25327;SDS011;13279;51.300;12.394;2022-08-19T06:01:11;66.73;;;38.70;;
25327;SDS011;13279;51.300;12.394;2022-08-19T06:03:40;60.03;;;39.70;;
25327;SDS011;13279;51.300;12.394;2022-08-19T06:06:12;61.60;;;38.33;;
25327;SDS011;13279;51.300;12.394;2022-08-19T06:08:43;57.40;;;36.80;;
25327;SDS011;13279;51.300;12.394;2022-08-19T06:11:17;68.87;;;40.27;;
25327;SDS011;13279;51.300;12.394;2022-08-19T06:13:47;58.87;;;37.80;;
25327;SDS011;13279;51.300;12.394;2022-08-19T06:16:18;56.70;;;38.53;;
25327;SDS011;13279;51.300;12.394;2022-08-19T06:18:47;58.03;;;36.90;;
25327;SDS011;13279;51.300;12.394;2022-08-19T06:21:18;58.93;;;39.00;;
25327;SDS011;13279;51.300;12.394;2022-08-19T06:23:47;61.50;;;39.03;;
25327;SDS011;13279;51.300;12.394;2022-08-19T06:26:17;60.50;;;37.90;;
25327;SDS011;13279;51.300;12.394;2022-08-19T06:28:46;60.73;;;38.53;;
25327;SDS011;13279;51.300;12.394;2022-08-19T06:31:15;60.13;;;38.27;;
25327;SDS011;13279;51.300;12.394;2022-08-19T06:33:44;58.90;;;38.03;;
25327;SDS011;13279;51.300;12.394;2022-08-19T06:36:19;61.83;;;37.70;;
25327;SDS011;13279;51.300;12.394;2022-08-19T06:38:54;66.20;;;38.30;;
25327;SDS011;13279;51.300;12.394;2022-08-19T06:41:22;54.73;;;37.80;;
25327;SDS011;13279;51.300;12.394;2022-08-19T06:43:49;59.70;;;38.20;;
25327;SDS011;13279;51.300;12.394;2022-08-19T06:46:17;69.63;;;40.87;;
25327;SDS011;13279;51.300;12.394;2022-08-19T06:48:46;63.60;;;38.30;;
25327;SDS011;13279;51.300;12.394;2022-08-19T06:51:14;59.57;;;39.03;;
25327;SDS011;13279;51.300;12.394;2022-08-19T06:53:44;61.93;;;39.33;;
25327;SDS011;13279;51.300;12.394;2022-08-19T06:56:14;70.23;;;41.97;;
25327;SDS011;13279;51.300;12.394;2022-08-19T06:58:42;69.50;;;42.43;;
25327;SDS011;13279;51.300;12.394;2022-08-19T07:01:11;81.37;;;44.50;;
25327;SDS011;13279;51.300;12.394;2022-08-19T07:03:39;78.80;;;44.10;;
25327;SDS011;13279;51.300;12.394;2022-08-19T07:06:07;75.77;;;42.57;;
25327;SDS011;13279;51.300;12.394;2022-08-19T07:08:38;77.90;;;43.23;;
25327;SDS011;13279;51.300;12.394;2022-08-19T07:11:06;74.00;;;43.50;;
25327;SDS011;13279;51.300;12.394;2022-08-19T07:13:37;71.90;;;42.53;;
25327;SDS011;13279;51.300;12.394;2022-08-19T07:16:06;77.40;;;42.53;;
25327;SDS011;13279;51.300;12.394;2022-08-19T07:18:34;74.33;;;43.03;;
25327;SDS011;13279;51.300;12.394;2022-08-19T07:21:03;68.03;;;41.57;;
25327;SDS011;13279;51.300;12.394;2022-08-19T07:23:32;75.43;;;41.77;;
25327;SDS011;13279;51.300;12.394;2022-08-19T07:26:03;78.10;;;42.43;;
25327;SDS011;13279;51.300;12.394;2022-08-19T07:28:32;71.90;;;42.20;;
25327;SDS011;13279;51.300;12.394;2022-08-19T07:31:01;77.57;;;42.83;;
25327;SDS011;13279;51.300;12.394;2022-08-19T07:33:29;72.63;;;43.30;;
25327;SDS011;13279;51.300;12.394;2022-08-19T07:35:58;68.47;;;40.33;;
25327;SDS011;13279;51.300;12.394;2022-08-19T07:38:25;70.00;;;40.17;;
25327;SDS011;13279;51.300;12.394;2022-08-19T07:40:53;63.73;;;38.07;;
25327;SDS011;13279;51.300;12.394;2022-08-19T07:43:20;60.37;;;37.40;;
25327;SDS011;13279;51.300;12.394;2022-08-19T07:45:51;60.73;;;37.20;;
25327;SDS011;13279;51.300;12.394;2022-08-19T07:48:23;65.57;;;38.13;;
25327;SDS011;13279;51.300;12.394;2022-08-19T07:50:51;60.23;;;34.93;;
25327;SDS011;13279;51.300;12.394;2022-08-19T07:53:20;57.67;;;36.90;;
25327;SDS011;13279;51.300;12.394;2022-08-19T07:55:48;62.43;;;36.23;;
25327;SDS011;13279;51.300;12.394;2022-08-19T07:58:18;59.07;;;35.50;;
25327;SDS011;13279;51.300;12.394;2022-08-19T08:00:48;55.27;;;34.90;;
25327;SDS011;13279;51.300;12.394;2022-08-19T08:03:18;53.50;;;33.50;;
25327;SDS011;13279;51.300;12.394;2022-08-19T08:06:09;52.07;;;32.67;;
25327;SDS011;13279;51.300;12.394;2022-08-19T08:08:54;51.47;;;32.43;;
25327;SDS011;13279;51.300;12.394;2022-08-19T08:11:42;54.20;;;32.10;;
25327;SDS011;13279;51.300;12.394;2022-08-19T08:14:14;61.73;;;32.93;;
25327;SDS011;13279;51.300;12.394;2022-08-19T08:16:43;50.87;;;33.67;;
25327;SDS011;13279;51.300;12.394;2022-08-19T08:19:11;50.07;;;30.97;;
25327;SDS011;13279;51.300;12.394;2022-08-19T08:21:41;48.87;;;31.90;;
25327;SDS011;13279;51.300;12.394;2022-08-19T08:24:09;49.10;;;32.10;;
25327;SDS011;13279;51.300;12.394;2022-08-19T08:26:38;46.17;;;31.00;;
25327;SDS011;13279;51.300;12.394;2022-08-19T08:29:06;47.10;;;31.37;;
25327;SDS011;13279;51.300;12.394;2022-08-19T08:31:38;47.17;;;29.97;;
25327;SDS011;13279;51.300;12.394;2022-08-19T08:34:06;50.83;;;31.13;;
25327;SDS011;13279;51.300;12.394;2022-08-19T08:36:36;45.97;;;30.53;;
25327;SDS011;13279;51.300;12.394;2022-08-19T08:39:09;51.23;;;31.67;;
25327;SDS011;13279;51.300;12.394;2022-08-19T08:41:40;52.13;;;32.07;;
25327;SDS011;13279;51.300;12.394;2022-08-19T08:44:14;50.97;;;32.00;;
25327;SDS011;13279;51.300;12.394;2022-08-19T08:46:45;58.97;;;31.77;;
25327;SDS011;13279;51.300;12.394;2022-08-19T08:49:23;55.90;;;30.67;;
25327;SDS011;13279;51.300;12.394;2022-08-19T08:51:59;58.40;;;30.93;;
25327;SDS011;13279;51.300;12.394;2022-08-19T08:54:33;50.93;;;32.03;;
25327;SDS011;13279;51.300;12.394;2022-08-19T08:57:04;49.10;;;31.20;;
25327;SDS011;13279;51.300;12.394;2022-08-19T08:59:41;47.37;;;30.10;;
25327;SDS011;13279;51.300;12.394;2022-08-19T09:02:14;47.57;;;29.30;;
25327;SDS011;13279;51.300;12.394;2022-08-19T09:04:41;48.00;;;29.77;;
25327;SDS011;13279;51.300;12.394;2022-08-19T09:07:13;48.07;;;28.53;;
25327;SDS011;13279;51.300;12.394;2022-08-19T09:09:55;52.93;;;30.80;;
25327;SDS011;13279;51.300;12.394;2022-08-19T09:12:31;48.97;;;30.07;;
25327;SDS011;13279;51.300;12.394;2022-08-19T09:15:06;47.83;;;30.77;;
25327;SDS011;13279;51.300;12.394;2022-08-19T09:17:36;42.67;;;28.57;;
25327;SDS011;13279;51.300;12.394;2022-08-19T09:20:05;49.03;;;30.63;;
25327;SDS011;13279;51.300;12.394;2022-08-19T09:22:41;47.33;;;30.77;;
25327;SDS011;13279;51.300;12.394;2022-08-19T09:25:12;47.53;;;29.27;;
25327;SDS011;13279;51.300;12.394;2022-08-19T09:27:41;51.10;;;30.37;;
25327;SDS011;13279;51.300;12.394;2022-08-19T09:30:12;53.70;;;30.73;;
25327;SDS011;13279;51.300;12.394;2022-08-19T09:32:41;48.17;;;28.77;;
25327;SDS011;13279;51.300;12.394;2022-08-19T09:35:09;51.30;;;30.97;;
25327;SDS011;13279;51.300;12.394;2022-08-19T09:37:38;55.23;;;30.13;;
25327;SDS011;13279;51.300;12.394;2022-08-19T09:40:06;48.67;;;30.47;;
25327;SDS011;13279;51.300;12.394;2022-08-19T09:42:36;46.00;;;28.37;;
25327;SDS011;13279;51.300;12.394;2022-08-19T09:45:04;46.03;;;28.43;;
25327;SDS011;13279;51.300;12.394;2022-08-19T09:47:32;41.77;;;27.37;;
25327;SDS011;13279;51.300;12.394;2022-08-19T09:50:01;40.73;;;28.57;;
25327;SDS011;13279;51.300;12.394;2022-08-19T09:52:29;45.40;;;29.43;;
25327;SDS011;13279;51.300;12.394;2022-08-19T09:54:57;41.40;;;26.13;;
25327;SDS011;13279;51.300;12.394;2022-08-19T09:57:25;46.60;;;27.03;;
25327;SDS011;13279;51.300;12.394;2022-08-19T09:59:54;39.77;;;26.53;;
25327;SDS011;13279;51.300;12.394;2022-08-19T10:02:21;53.90;;;26.40;;
25327;SDS011;13279;51.300;12.394;2022-08-19T10:04:50;44.27;;;24.73;;
25327;SDS011;13279;51.300;12.394;2022-08-19T10:07:35;38.37;;;25.40;;
25327;SDS011;13279;51.300;12.394;2022-08-19T10:10:03;41.47;;;24.87;;
25327;SDS011;13279;51.300;12.394;2022-08-19T10:12:33;37.17;;;24.23;;
25327;SDS011;13279;51.300;12.394;2022-08-19T10:15:02;39.43;;;23.43;;
25327;SDS011;13279;51.300;12.394;2022-08-19T10:17:31;33.70;;;21.23;;
25327;SDS011;13279;51.300;12.394;2022-08-19T10:20:00;34.37;;;22.03;;
25327;SDS011;13279;51.300;12.394;2022-08-19T10:22:29;35.20;;;23.73;;
25327;SDS011;13279;51.300;12.394;2022-08-19T10:24:57;40.70;;;22.43;;
25327;SDS011;13279;51.300;12.394;2022-08-19T10:27:25;39.27;;;22.63;;
25327;SDS011;13279;51.300;12.394;2022-08-19T10:29:52;34.17;;;21.60;;
25327;SDS011;13279;51.300;12.394;2022-08-19T10:32:21;30.50;;;19.67;;
25327;SDS011;13279;51.300;12.394;2022-08-19T10:34:50;31.27;;;21.20;;
25327;SDS011;13279;51.300;12.394;2022-08-19T10:37:19;32.33;;;20.53;;
25327;SDS011;13279;51.300;12.394;2022-08-19T10:39:46;26.90;;;17.80;;
25327;SDS011;13279;51.300;12.394;2022-08-19T10:42:15;26.33;;;18.37;;
25327;SDS011;13279;51.300;12.394;2022-08-19T10:44:44;32.13;;;18.10;;
25327;SDS011;13279;51.300;12.394;2022-08-19T10:47:13;26.43;;;16.73;;
25327;SDS011;13279;51.300;12.394;2022-08-19T10:49:43;27.77;;;17.63;;
25327;SDS011;13279;51.300;12.394;2022-08-19T10:52:28;23.00;;;16.37;;
25327;SDS011;13279;51.300;12.394;2022-08-19T10:55:02;22.80;;;16.60;;
25327;SDS011;13279;51.300;12.394;2022-08-19T10:57:50;25.57;;;17.17;;
25327;SDS011;13279;51.300;12.394;2022-08-19T11:00:18;24.97;;;15.03;;
25327;SDS011;13279;51.300;12.394;2022-08-19T11:02:46;23.03;;;16.27;;
25327;SDS011;13279;51.300;12.394;2022-08-19T11:05:15;25.30;;;15.73;;
25327;SDS011;13279;51.300;12.394;2022-08-19T11:07:44;22.30;;;16.47;;
25327;SDS011;13279;51.300;12.394;2022-08-19T11:10:13;22.57;;;15.40;;
25327;SDS011;13279;51.300;12.394;2022-08-19T11:12:44;27.30;;;14.07;;
25327;SDS011;13279;51.300;12.394;2022-08-19T11:15:13;25.57;;;14.90;;
25327;SDS011;13279;51.300;12.394;2022-08-19T11:17:42;28.87;;;15.87;;
25327;SDS011;13279;51.300;12.394;2022-08-19T11:20:10;21.20;;;14.77;;
25327;SDS011;13279;51.300;12.394;2022-08-19T11:22:40;24.63;;;15.23;;
25327;SDS011;13279;51.300;12.394;2022-08-19T11:25:09;27.93;;;16.10;;
25327;SDS011;13279;51.300;12.394;2022-08-19T11:27:38;24.80;;;14.63;;
25327;SDS011;13279;51.300;12.394;2022-08-19T11:30:09;23.00;;;14.97;;
25327;SDS011;13279;51.300;12.394;2022-08-19T11:32:37;17.87;;;13.60;;
25327;SDS011;13279;51.300;12.394;2022-08-19T11:35:05;24.40;;;14.53;;
25327;SDS011;13279;51.300;12.394;2022-08-19T11:37:33;22.57;;;14.07;;
25327;SDS011;13279;51.300;12.394;2022-08-19T11:40:05;18.00;;;13.13;;
25327;SDS011;13279;51.300;12.394;2022-08-19T11:42:34;24.47;;;13.83;;
25327;SDS011;13279;51.300;12.394;2022-08-19T11:45:19;28.80;;;14.83;;
25327;SDS011;13279;51.300;12.394;2022-08-19T11:47:46;21.30;;;14.03;;
25327;SDS011;13279;51.300;12.394;2022-08-19T11:50:14;21.73;;;13.27;;
25327;SDS011;13279;51.300;12.394;2022-08-19T11:52:42;22.63;;;13.80;;
25327;SDS011;13279;51.300;12.394;2022-08-19T11:55:12;27.67;;;13.83;;
25327;SDS011;13279;51.300;12.394;2022-08-19T11:57:39;21.20;;;12.87;;
25327;SDS011;13279;51.300;12.394;2022-08-19T12:00:09;17.93;;;12.13;;
25327;SDS011;13279;51.300;12.394;2022-08-19T12:02:38;20.90;;;12.63;;
25327;SDS011;13279;51.300;12.394;2022-08-19T12:05:06;16.77;;;12.93;;
25327;SDS011;13279;51.300;12.394;2022-08-19T12:07:34;22.97;;;13.60;;
25327;SDS011;13279;51.300;12.394;2022-08-19T12:10:02;21.07;;;13.20;;
25327;SDS011;13279;51.300;12.394;2022-08-19T12:12:31;16.03;;;12.03;;
25327;SDS011;13279;51.300;12.394;2022-08-19T12:14:59;15.97;;;11.60;;
25327;SDS011;13279;51.300;12.394;2022-08-19T12:17:26;15.00;;;11.43;;
25327;SDS011;13279;51.300;12.394;2022-08-19T12:19:54;22.60;;;12.67;;
25327;SDS011;13279;51.300;12.394;2022-08-19T12:22:21;21.40;;;12.97;;
25327;SDS011;13279;51.300;12.394;2022-08-19T12:24:49;16.07;;;12.03;;
25327;SDS011;13279;51.300;12.394;2022-08-19T12:27:18;16.17;;;11.73;;
25327;SDS011;13279;51.300;12.394;2022-08-19T12:29:47;19.27;;;11.30;;
25327;SDS011;13279;51.300;12.394;2022-08-19T12:32:15;15.23;;;11.20;;
25327;SDS011;13279;51.300;12.394;2022-08-19T12:34:43;14.40;;;10.57;;
25327;SDS011;13279;51.300;12.394;2022-08-19T12:37:12;12.97;;;9.67;;
25327;SDS011;13279;51.300;12.394;2022-08-19T12:39:41;16.33;;;11.20;;
25327;SDS011;13279;51.300;12.394;2022-08-19T12:42:09;14.37;;;10.63;;
25327;SDS011;13279;51.300;12.394;2022-08-19T12:44:38;14.10;;;10.70;;
25327;SDS011;13279;51.300;12.394;2022-08-19T12:47:09;12.67;;;10.67;;
25327;SDS011;13279;51.300;12.394;2022-08-19T12:49:39;12.30;;;9.77;;
25327;SDS011;13279;51.300;12.394;2022-08-19T12:52:06;14.50;;;10.47;;
25327;SDS011;13279;51.300;12.394;2022-08-19T12:54:35;13.93;;;10.47;;
25327;SDS011;13279;51.300;12.394;2022-08-19T12:57:04;14.37;;;10.43;;
25327;SDS011;13279;51.300;12.394;2022-08-19T12:59:33;17.07;;;11.10;;
25327;SDS011;13279;51.300;12.394;2022-08-19T13:02:02;17.57;;;10.77;;
25327;SDS011;13279;51.300;12.394;2022-08-19T13:04:32;14.10;;;11.50;;
25327;SDS011;13279;51.300;12.394;2022-08-19T13:07:06;13.63;;;11.03;;
25327;SDS011;13279;51.300;12.394;2022-08-19T13:09:35;18.33;;;11.67;;
25327;SDS011;13279;51.300;12.394;2022-08-19T13:12:03;14.87;;;11.17;;
25327;SDS011;13279;51.300;12.394;2022-08-19T13:14:33;16.33;;;12.50;;
25327;SDS011;13279;51.300;12.394;2022-08-19T13:17:01;15.67;;;11.97;;
25327;SDS011;13279;51.300;12.394;2022-08-19T13:19:28;17.53;;;12.73;;
25327;SDS011;13279;51.300;12.394;2022-08-19T13:21:58;18.40;;;12.80;;
25327;SDS011;13279;51.300;12.394;2022-08-19T13:24:25;22.13;;;13.43;;
25327;SDS011;13279;51.300;12.394;2022-08-19T13:26:53;19.70;;;13.60;;
25327;SDS011;13279;51.300;12.394;2022-08-19T13:29:21;17.30;;;13.30;;
25327;SDS011;13279;51.300;12.394;2022-08-19T13:32:05;20.07;;;13.07;;
25327;SDS011;13279;51.300;12.394;2022-08-19T13:34:50;26.30;;;15.47;;
25327;SDS011;13279;51.300;12.394;2022-08-19T13:37:19;21.63;;;14.17;;
25327;SDS011;13279;51.300;12.394;2022-08-19T13:40:06;22.73;;;15.27;;
25327;SDS011;13279;51.300;12.394;2022-08-19T13:42:38;21.67;;;13.80;;
25327;SDS011;13279;51.300;12.394;2022-08-19T13:45:06;21.93;;;14.37;;
25327;SDS011;13279;51.300;12.394;2022-08-19T13:47:34;19.07;;;14.07;;
25327;SDS011;13279;51.300;12.394;2022-08-19T13:50:08;19.50;;;14.27;;
25327;SDS011;13279;51.300;12.394;2022-08-19T13:52:39;25.17;;;14.00;;
25327;SDS011;13279;51.300;12.394;2022-08-19T13:55:08;18.03;;;13.20;;
25327;SDS011;13279;51.300;12.394;2022-08-19T13:57:37;18.77;;;13.40;;
25327;SDS011;13279;51.300;12.394;2022-08-19T14:00:05;16.97;;;13.37;;
25327;SDS011;13279;51.300;12.394;2022-08-19T14:02:35;20.00;;;14.17;;
25327;SDS011;13279;51.300;12.394;2022-08-19T14:05:03;17.53;;;13.43;;
25327;SDS011;13279;51.300;12.394;2022-08-19T14:07:31;17.40;;;13.07;;
25327;SDS011;13279;51.300;12.394;2022-08-19T14:10:00;17.53;;;13.87;;
25327;SDS011;13279;51.300;12.394;2022-08-19T14:12:28;16.53;;;12.83;;
25327;SDS011;13279;51.300;12.394;2022-08-19T14:14:57;20.03;;;13.97;;
25327;SDS011;13279;51.300;12.394;2022-08-19T14:17:25;23.77;;;13.33;;
25327;SDS011;13279;51.300;12.394;2022-08-19T14:19:55;19.77;;;13.50;;
25327;SDS011;13279;51.300;12.394;2022-08-19T14:22:23;22.70;;;14.43;;